Time;durP1;ratioP1;P1;durP2;ratioP2;P2;SDS_P1;SDS_P2;PMS_P1;PMS_P2;Temp;Humidity;BMP_temperature;BMP_pressure;BME280_temperature;BME280_humidity;BME280_pressure;Samples;Min_cycle;Max_cycle;Signal;HPM_P1;HPM_P2
2022/01/30 00:02:14;;;;;;;14.85;2.58;;;;;;;10.51;54.22;102583.09;5008204;28;118249;-80
2022/01/30 00:04:41;;;;;;;18.52;3.03;;;;;;;10.50;54.32;102585.75;4990282;28;123518;-79
2022/01/30 00:07:08;;;;;;;16.33;2.50;;;;;;;10.49;54.55;102590.19;4992166;28;124179;-78
2022/01/30 00:09:35;;;;;;;22.13;3.20;;;;;;;10.47;54.62;102591.09;4989224;28;119860;-79
2022/01/30 00:12:05;;;;;;;16.75;2.35;;;;;;;10.45;54.25;102582.31;4977241;28;118564;-79
2022/01/30 00:14:35;;;;;;;15.20;2.50;;;;;;;10.43;54.43;102581.47;4989087;28;124282;-79
2022/01/30 00:17:11;;;;;;;13.60;2.92;;;;;;;10.41;54.61;102576.19;4991527;28;123776;-78
2022/01/30 00:19:55;;;;;;;14.02;2.47;;;;;;;10.38;54.35;102564.75;4985870;28;118049;-78
2022/01/30 00:24:56;;;;;;;14.95;2.25;;;;;;;10.31;54.56;102570.16;4987164;28;124881;-77
2022/01/30 00:27:30;;;;;;;17.52;3.22;;;;;;;10.29;54.48;102571.06;4984926;28;123697;-77
2022/01/30 00:29:59;;;;;;;17.10;2.90;;;;;;;10.26;54.29;102582.56;4983417;28;120973;-78
2022/01/30 00:32:26;;;;;;;14.93;2.40;;;;;;;10.24;54.60;102594.97;4986114;28;118944;-78
2022/01/30 00:35:14;;;;;;;18.17;2.67;;;;;;;10.22;54.28;102594.13;4985987;28;123353;-77
2022/01/30 00:37:43;;;;;;;18.50;3.42;;;;;;;10.20;54.62;102597.69;4985603;28;123569;-77
2022/01/30 00:40:30;;;;;;;17.73;3.15;;;;;;;10.18;54.48;102605.66;4985851;28;117409;-78
2022/01/30 00:42:58;;;;;;;15.07;2.38;;;;;;;10.16;54.53;102596.88;4987150;28;118838;-77
2022/01/30 00:45:26;;;;;;;17.92;2.72;;;;;;;10.14;54.24;102601.31;4969213;28;123085;-78
2022/01/30 00:47:53;;;;;;;18.63;2.72;;;;;;;10.12;54.57;102600.47;4985916;28;124242;-78
2022/01/30 00:50:20;;;;;;;15.02;2.40;;;;;;;10.09;54.64;102595.19;4969386;28;118218;-78
2022/01/30 00:52:53;;;;;;;15.02;2.58;;;;;;;10.07;54.45;102597.00;4987454;28;118686;-78
2022/01/30 00:55:24;;;;;;;21.05;3.00;;;;;;;10.05;54.73;102596.16;4988427;28;122120;-77
2022/01/30 00:57:52;;;;;;;17.30;2.47;;;;;;;10.01;54.69;102597.09;4988660;28;123846;-77
2022/01/30 01:00:20;;;;;;;13.65;2.55;;;;;;;9.99;54.52;102610.34;4988843;28;119858;-76
2022/01/30 01:02:47;;;;;;;15.73;2.60;;;;;;;9.98;54.35;102618.31;4974225;28;118391;-77
2022/01/30 01:05:16;;;;;;;15.57;2.47;;;;;;;9.96;54.69;102614.81;4993002;28;124229;-77
2022/01/30 01:07:47;;;;;;;20.60;3.10;;;;;;;9.93;54.76;102621.91;4994391;28;124136;-76
2022/01/30 01:24:01;;;;;;;18.60;2.67;;;;;;;9.77;54.96;102625.63;4989725;28;119232;-77
2022/01/30 01:26:28;;;;;;;19.40;2.58;;;;;;;9.72;54.37;102616.91;4989440;28;124359;-77
2022/01/30 01:28:56;;;;;;;17.38;3.42;;;;;;;9.70;54.90;102618.66;4971706;28;123331;-78
2022/01/30 01:31:23;;;;;;;18.63;2.60;;;;;;;9.68;54.74;102623.09;4990659;28;119909;-78
2022/01/30 01:34:14;;;;;;;11.32;2.30;;;;;;;9.68;54.77;102625.75;5005646;28;117205;-77
2022/01/30 01:36:41;;;;;;;15.18;2.60;;;;;;;9.66;54.46;102616.94;4988338;28;123640;-77
2022/01/30 01:39:08;;;;;;;21.33;2.75;;;;;;;9.66;54.78;102622.25;4988814;28;123194;-77
2022/01/30 01:41:36;;;;;;;15.70;2.53;;;;;;;9.64;55.08;102624.03;4971475;28;118199;-78
2022/01/30 01:44:13;;;;;;;15.23;2.70;;;;;;;9.63;54.79;102627.59;4971896;28;118267;-77
2022/01/30 01:46:42;;;;;;;12.85;2.22;;;;;;;9.61;54.90;102624.97;4988015;28;123166;-78
2022/01/30 01:49:15;;;;;;;16.15;2.58;;;;;;;9.59;54.61;102620.56;4988859;28;123123;-77
2022/01/30 01:51:48;;;;;;;17.98;2.60;;;;;;;9.59;55.00;102631.16;4972643;28;119467;-78
2022/01/30 01:54:16;;;;;;;15.98;2.38;;;;;;;9.57;54.63;102622.34;4972153;28;118402;-78
2022/01/30 01:56:44;;;;;;;16.15;2.95;;;;;;;9.55;54.84;102625.91;4971867;28;124780;-78
2022/01/30 01:59:23;;;;;;;12.35;2.10;;;;;;;9.54;54.66;102618.84;4988559;28;124220;-78
2022/01/30 02:02:05;;;;;;;20.23;2.90;;;;;;;9.52;54.73;102614.50;4989036;28;117771;-78
2022/01/30 02:04:32;;;;;;;15.68;2.58;;;;;;;9.50;54.74;102617.16;4987970;28;117561;-78
2022/01/30 02:07:20;;;;;;;21.55;2.97;;;;;;;9.49;54.87;102614.50;4987923;28;124275;-76
2022/01/30 02:09:47;;;;;;;14.38;2.35;;;;;;;9.47;54.72;102617.19;4988158;28;123836;-78
2022/01/30 02:12:19;;;;;;;17.52;2.80;;;;;;;9.48;54.80;102612.78;4971515;28;119817;-78
2022/01/30 02:15:16;;;;;;;23.65;3.05;;;;;;;9.47;54.84;102621.59;4988352;28;119591;-78
2022/01/30 02:26:01;;;;;;;18.73;2.50;;;;;;;9.37;54.67;102615.53;4988155;28;119130;-78
2022/01/30 02:28:31;;;;;;;14.23;2.45;;;;;;;9.35;54.79;102612.03;4987719;28;125967;-78
2022/01/30 02:31:04;;;;;;;19.17;2.45;;;;;;;9.34;55.15;102612.91;4988373;28;122903;-78
2022/01/30 02:33:32;;;;;;;14.95;2.38;;;;;;;9.33;54.99;102613.84;4971642;28;118406;-77
2022/01/30 02:36:00;;;;;;;13.88;2.28;;;;;;;9.31;54.82;102605.03;4987902;28;118289;-78
2022/01/30 02:38:27;;;;;;;21.52;2.88;;;;;;;9.29;54.99;102612.13;4987093;28;122459;-78
2022/01/30 02:40:57;;;;;;;16.35;2.78;;;;;;;9.28;55.00;102623.56;4970828;28;123265;-77
2022/01/30 02:43:30;;;;;;;13.95;2.45;;;;;;;9.27;54.82;102635.06;4987569;28;118743;-78
2022/01/30 02:48:34;;;;;;;20.08;2.92;;;;;;;9.24;55.28;102624.50;4987258;28;123560;-78
2022/01/30 02:51:14;;;;;;;15.48;2.30;;;;;;;9.21;54.88;102629.81;4986895;28;123384;-77
2022/01/30 02:53:46;;;;;;;12.82;2.40;;;;;;;9.19;55.20;102631.59;4987499;28;118416;-76
2022/01/30 02:56:13;;;;;;;14.63;2.45;;;;;;;9.16;55.12;102633.38;4971670;28;117231;-78
2022/01/30 02:58:40;;;;;;;22.85;3.28;;;;;;;9.16;54.92;102633.38;4987070;28;123862;-78
2022/01/30 03:01:07;;;;;;;13.85;2.53;;;;;;;9.14;55.30;102644.88;4987159;28;123231;-78
2022/01/30 03:03:34;;;;;;;12.30;2.35;;;;;;;9.12;54.94;102646.66;4986931;28;119424;-78
2022/01/30 03:06:02;;;;;;;15.35;2.67;;;;;;;9.10;55.01;102646.69;4987991;28;119759;-77
2022/01/30 03:08:29;;;;;;;15.88;3.03;;;;;;;9.08;55.03;102651.09;4988511;28;123368;-78
2022/01/30 03:10:56;;;;;;;16.67;2.95;;;;;;;9.05;55.09;102666.97;4972308;28;123971;-78
2022/01/30 03:13:23;;;;;;;22.05;2.63;;;;;;;9.04;55.13;102667.88;4972966;28;119091;-77
2022/01/30 03:15:50;;;;;;;18.55;3.00;;;;;;;9.02;55.09;102667.00;4987916;28;118290;-78
2022/01/30 03:18:18;;;;;;;18.48;2.58;;;;;;;9.01;55.35;102670.53;4972051;28;123749;-77
2022/01/30 03:20:45;;;;;;;16.67;2.65;;;;;;;9.00;55.03;102676.72;4987801;28;124324;-78
2022/01/30 03:23:12;;;;;;;15.63;2.47;;;;;;;8.98;55.25;102680.28;4988718;28;119479;-78
2022/01/30 03:25:39;;;;;;;21.60;3.08;;;;;;;8.96;55.38;102693.50;4988594;28;119152;-76
2022/01/30 03:28:29;;;;;;;19.13;2.65;;;;;;;8.94;55.32;102703.19;4972720;28;124113;-77
2022/01/30 03:31:10;;;;;;;12.75;2.25;;;;;;;8.92;55.22;102713.78;4986652;28;124399;-77
2022/01/30 03:33:42;;;;;;;16.70;2.58;;;;;;;8.92;55.55;102718.19;4986665;28;119783;-77
2022/01/30 03:36:09;;;;;;;12.93;2.28;;;;;;;8.92;55.19;102718.19;4986198;28;118713;-76
2022/01/30 03:38:38;;;;;;;15.85;2.45;;;;;;;8.93;55.27;102723.47;4985836;28;123292;-77
2022/01/30 03:41:05;;;;;;;13.85;2.35;;;;;;;8.94;55.33;102722.56;5002443;28;124010;-77
2022/01/30 03:43:34;;;;;;;14.57;2.45;;;;;;;8.96;55.39;102727.84;4983010;28;119001;-76
2022/01/30 03:46:01;;;;;;;10.30;2.22;;;;;;;8.97;55.54;102726.97;4967142;28;118571;-76
2022/01/30 03:48:28;;;;;;;12.27;2.30;;;;;;;8.99;55.33;102730.47;4983058;28;123993;-77
2022/01/30 03:51:03;;;;;;;12.80;2.17;;;;;;;9.01;55.65;102730.47;4966817;28;123502;-77
2022/01/30 03:53:33;;;;;;;15.25;2.40;;;;;;;9.01;55.79;102731.34;4982902;28;120076;-77
2022/01/30 03:56:01;;;;;;;18.50;2.60;;;;;;;9.03;55.69;102736.63;4966162;28;119174;-77
2022/01/30 03:58:32;;;;;;;15.15;2.47;;;;;;;9.03;55.44;102742.78;4982608;28;123478;-77
2022/01/30 04:01:06;;;;;;;;;;;;;;;9.02;55.53;102740.13;4982536;28;123234;-77
2022/01/30 04:03:35;;;;;;;16.75;2.13;;;;;;;9.01;55.46;102733.09;4982520;28;119395;-77
2022/01/30 04:06:05;;;;;;;16.83;2.47;;;;;;;8.97;55.42;102732.25;4965665;28;118480;-77
2022/01/30 04:08:33;;;;;;;14.88;2.35;;;;;;;8.95;55.37;102739.31;4965324;28;124433;-76
2022/01/30 04:11:22;;;;;;;7.50;1.98;;;;;;;8.90;55.40;102738.47;4965803;28;123959;-75
2022/01/30 04:14:13;;;;;;;12.30;2.28;;;;;;;8.86;55.49;102744.66;4959046;28;119661;-77
2022/01/30 04:17:00;;;;;;;12.77;2.10;;;;;;;8.81;55.43;102736.75;4970335;28;97055;-77
2022/01/30 04:19:43;;;;;;;12.05;2.30;;;;;;;8.78;55.55;102736.81;4981665;28;123301;-77
2022/01/30 04:22:29;;;;;;;10.15;2.03;;;;;;;8.75;55.42;102742.97;4982493;28;124115;-77
2022/01/30 04:25:15;;;;;;;;;;;;;;;8.70;55.25;102750.06;4965270;28;120051;-77
2022/01/30 04:28:00;;;;;;;11.57;1.90;;;;;;;8.69;55.23;102740.38;4972094;28;119586;-77
2022/01/30 04:30:53;;;;;;;12.50;1.85;;;;;;;8.65;55.55;102740.41;4970815;28;124389;-77
2022/01/30 04:33:49;;;;;;;10.88;1.70;;;;;;;8.61;55.76;102742.19;4959719;28;124792;-77
2022/01/30 04:36:37;;;;;;;12.90;1.80;;;;;;;8.58;55.77;102740.44;4986874;28;119116;-76
2022/01/30 04:40:19;;;;;;;11.80;2.00;;;;;;;8.57;55.41;102748.38;4972554;28;118459;-77
2022/01/30 04:58:26;;;;;;;11.63;1.42;;;;;;;8.46;55.55;102739.66;4988424;28;123263;-77
2022/01/30 05:01:20;;;;;;;10.05;1.42;;;;;;;8.45;55.51;102743.16;4971785;28;118554;-77
2022/01/30 05:09:53;;;;;;;11.25;1.70;;;;;;;8.43;55.22;102761.66;4973580;28;124068;-76
2022/01/30 05:12:43;;;;;;;6.82;1.45;;;;;;;8.41;55.38;102767.81;4972495;28;118859;-76
2022/01/30 05:15:37;;;;;;;4.78;1.27;;;;;;;8.41;55.04;102767.81;4983082;28;118327;-77
2022/01/30 05:18:24;;;;;;;7.43;1.48;;;;;;;8.41;55.21;102767.81;4986428;28;124688;-77
2022/01/30 05:21:03;;;;;;;6.25;1.88;;;;;;;8.37;55.30;102773.09;4984765;28;124218;-77
2022/01/30 05:23:39;;;;;;;7.35;1.38;;;;;;;8.37;55.30;102781.00;4988016;28;119016;-77
2022/01/30 05:26:11;;;;;;;10.75;1.63;;;;;;;8.35;55.19;102774.84;4971837;28;119075;-76
2022/01/30 05:28:46;;;;;;;10.27;1.77;;;;;;;8.33;55.41;102779.28;4987810;28;123230;-77
2022/01/30 05:31:43;;;;;;;9.88;1.27;;;;;;;8.32;54.92;102777.50;4971533;28;124209;-77
2022/01/30 05:34:30;;;;;;;10.02;1.45;;;;;;;8.29;55.27;102779.31;4972703;28;120143;-77
2022/01/30 05:37:27;;;;;;;6.68;1.77;;;;;;;8.25;55.45;102773.16;4959697;28;118887;-77
2022/01/30 05:40:36;;;;;;;8.20;1.23;;;;;;;8.23;55.00;102782.84;4950577;28;124094;-77
2022/01/30 05:43:32;;;;;;;7.85;1.27;;;;;;;8.22;55.20;102788.13;4965140;28;124413;-77
2022/01/30 05:46:17;;;;;;;9.95;1.80;;;;;;;8.20;55.29;102785.50;4982789;28;120215;-77
2022/01/30 05:49:04;;;;;;;9.40;1.33;;;;;;;8.21;55.21;102791.63;4970156;28;119619;-76
2022/01/30 05:51:49;;;;;;;9.25;1.50;;;;;;;8.19;55.12;102791.63;4969961;28;124736;-77
2022/01/30 05:54:21;;;;;;;12.45;1.60;;;;;;;8.18;55.22;102787.25;4968292;28;123885;-77
2022/01/30 05:56:50;;;;;;;9.82;1.40;;;;;;;8.19;55.16;102786.34;4967906;28;119663;-77
2022/01/30 05:59:17;;;;;;;8.95;1.35;;;;;;;8.18;55.14;102781.97;4967839;28;118337;-77
2022/01/30 06:02:07;;;;;;;9.27;1.83;;;;;;;8.19;55.28;102794.28;4968251;28;124791;-76
2022/01/30 06:04:34;;;;;;;9.18;1.48;;;;;;;8.18;55.27;102787.25;4968093;28;123559;-77
2022/01/30 06:07:02;;;;;;;9.15;1.23;;;;;;;8.16;54.81;102783.75;4967712;28;118452;-76
2022/01/30 06:09:30;;;;;;;12.18;1.67;;;;;;;8.16;55.50;102789.03;4968077;28;118729;-76
2022/01/30 06:11:57;;;;;;;10.02;1.40;;;;;;;8.16;55.20;102794.31;4983499;28;123446;-76
2022/01/30 06:14:25;;;;;;;11.57;1.60;;;;;;;8.16;55.30;102794.31;4967637;28;122878;-77
2022/01/30 06:17:05;;;;;;;13.50;1.88;;;;;;;8.16;55.12;102810.13;4984282;28;118813;-76
2022/01/30 06:19:50;;;;;;;9.18;1.95;;;;;;;8.13;55.34;102816.28;4981102;28;119537;-77
2022/01/30 06:22:36;;;;;;;8.35;1.60;;;;;;;8.13;55.07;102812.78;4968853;28;124892;-77
2022/01/30 06:25:33;;;;;;;11.02;1.88;;;;;;;8.12;54.92;102813.69;4931653;28;124501;-77
2022/01/30 06:28:19;;;;;;;7.32;1.48;;;;;;;8.10;55.25;102811.03;4968582;28;120080;-77
2022/01/30 06:31:08;;;;;;;8.07;1.42;;;;;;;8.11;55.12;102822.47;4982514;28;118921;-77
2022/01/30 06:33:54;;;;;;;7.88;1.48;;;;;;;8.09;55.04;102825.09;4968359;28;125254;-77
2022/01/30 06:36:50;;;;;;;6.97;1.73;;;;;;;8.08;55.35;102827.75;4968780;28;123897;-77
2022/01/30 06:39:37;;;;;;;12.13;1.55;;;;;;;8.06;55.15;102824.22;4953381;28;121506;-76
2022/01/30 06:42:13;;;;;;;5.97;1.58;;;;;;;8.08;55.27;102838.28;4968477;28;119514;-76
2022/01/30 06:44:58;;;;;;;;;;;;;;;8.07;55.26;102833.91;4966874;28;125310;-77
2022/01/30 06:47:44;;;;;;;10.95;1.60;;;;;;;8.09;55.27;102832.16;4995871;28;125068;-76
2022/01/30 06:50:30;;;;;;;;;;;;;;;8.08;55.41;102828.63;4982224;28;119889;-77
2022/01/30 06:53:20;;;;;;;10.15;1.20;;;;;;;8.09;55.12;102834.78;4967033;28;118321;-76
2022/01/30 06:56:06;;;;;;;12.02;1.60;;;;;;;8.07;55.29;102844.47;4969117;28;124765;-77
2022/01/30 06:58:56;;;;;;;7.30;1.20;;;;;;;8.06;55.53;102850.63;4982436;28;123829;-76
2022/01/30 07:01:41;;;;;;;9.98;1.63;;;;;;;8.06;55.43;102855.91;4968353;28;119983;-77
2022/01/30 07:04:27;;;;;;;;;;;;;;;8.03;55.21;102866.47;4965907;28;119950;-76
2022/01/30 07:07:16;;;;;;;8.80;1.48;;;;;;;8.03;55.30;102866.47;4984077;28;124095;-76
2022/01/30 07:09:43;;;;;;;14.93;1.60;;;;;;;8.02;55.37;102864.72;4967710;28;123652;-77
2022/01/30 07:12:10;;;;;;;13.55;2.00;;;;;;;8.01;55.18;102868.25;4968094;28;119244;-77
2022/01/30 07:14:37;;;;;;;9.02;1.70;;;;;;;8.01;55.21;102879.66;4967940;28;118088;-76
2022/01/30 07:17:04;;;;;;;9.80;2.13;;;;;;;8.02;55.19;102880.53;4966773;28;123081;-76
2022/01/30 07:19:31;;;;;;;13.15;1.90;;;;;;;8.02;55.31;102885.81;4967200;28;123568;-76
2022/01/30 07:21:59;;;;;;;8.70;1.65;;;;;;;8.02;54.92;102880.53;4967551;28;118406;-77
2022/01/30 07:24:26;;;;;;;11.07;1.85;;;;;;;7.99;55.09;102887.59;4951405;28;118313;-77
2022/01/30 07:26:56;;;;;;;10.60;1.80;;;;;;;8.00;55.28;102877.91;4966966;28;123326;-76
2022/01/30 07:29:23;;;;;;;8.80;2.00;;;;;;;7.98;54.91;102896.38;4967736;28;123603;-77
2022/01/30 07:31:50;;;;;;;11.02;1.52;;;;;;;7.98;55.24;102890.22;4966081;28;119429;-77
2022/01/30 07:34:20;;;;;;;11.57;1.95;;;;;;;7.98;55.05;102900.78;4983418;28;119347;-76
2022/01/30 07:36:47;;;;;;;11.57;1.63;;;;;;;7.97;55.34;102899.03;4966414;28;124632;-77
2022/01/30 07:39:17;;;;;;;9.15;2.20;;;;;;;7.97;55.35;102905.19;4966840;28;123771;-77
2022/01/30 07:41:45;;;;;;;9.38;1.77;;;;;;;7.96;55.22;102908.69;4967579;28;118575;-77
2022/01/30 07:44:15;;;;;;;15.10;1.85;;;;;;;7.98;54.94;102906.91;4966454;28;119881;-76
2022/01/30 07:46:43;;;;;;;14.68;1.90;;;;;;;7.96;55.15;102908.69;4983083;28;123340;-77
2022/01/30 07:49:10;;;;;;;11.57;1.60;;;;;;;7.98;55.33;102916.59;4983593;28;124848;-77
2022/01/30 07:51:37;;;;;;;9.93;2.10;;;;;;;7.98;55.27;102908.69;4966618;28;118375;-76
2022/01/30 07:54:05;;;;;;;12.82;2.10;;;;;;;7.98;55.20;102912.19;4967377;28;117023;-77
2022/01/30 07:56:32;;;;;;;10.65;2.20;;;;;;;7.99;55.22;102913.97;4983186;28;123997;-77
2022/01/30 07:58:59;;;;;;;15.45;2.65;;;;;;;8.02;55.40;102914.84;4971168;28;122731;-77
2022/01/30 08:01:26;;;;;;;8.48;2.20;;;;;;;8.02;55.37;102918.34;5002832;28;117556;-76
2022/01/30 08:03:54;;;;;;;9.10;2.30;;;;;;;8.04;55.21;102928.91;4979841;28;117212;-77
2022/01/30 08:06:21;;;;;;;8.45;2.10;;;;;;;8.04;55.32;102921.88;4989053;28;124104;-77
2022/01/30 08:08:48;;;;;;;11.00;2.13;;;;;;;8.04;55.28;102927.16;4968285;28;123941;-77
2022/01/30 08:11:15;;;;;;;12.07;2.63;;;;;;;8.05;55.24;102933.31;4968295;28;119238;-77
2022/01/30 08:13:42;;;;;;;10.10;2.22;;;;;;;8.03;55.37;102935.97;4983738;28;117198;-77
2022/01/30 08:16:09;;;;;;;12.57;2.13;;;;;;;8.04;55.25;102936.84;4982813;28;123819;-77
2022/01/30 08:18:38;;;;;;;7.82;1.85;;;;;;;8.04;55.20;102936.84;4965626;28;124169;-77
2022/01/30 08:21:05;;;;;;;16.25;1.73;;;;;;;8.06;55.47;102932.44;4983442;28;120311;-77
2022/01/30 08:23:33;;;;;;;11.48;1.63;;;;;;;8.09;55.81;102940.34;4983834;28;119886;-77
2022/01/30 08:26:01;;;;;;;12.48;2.22;;;;;;;8.12;55.69;102924.53;4966302;28;124055;-77
2022/01/30 08:28:29;;;;;;;12.68;2.13;;;;;;;8.16;55.50;102931.56;4965838;28;121937;-77
2022/01/30 08:30:56;;;;;;;12.30;2.03;;;;;;;8.20;55.54;102933.31;4966269;28;117338;-77
2022/01/30 08:33:23;;;;;;;17.05;2.92;;;;;;;8.24;55.22;102932.41;4966254;28;117355;-77
2022/01/30 08:35:50;;;;;;;17.80;3.13;;;;;;;8.28;55.64;102931.50;4967833;28;123358;-77
2022/01/30 08:38:18;;;;;;;13.35;2.60;;;;;;;8.32;55.51;102933.25;4982712;28;124596;-77
2022/01/30 08:40:46;;;;;;;11.00;2.72;;;;;;;8.36;55.55;102929.75;4982479;28;119410;-77
2022/01/30 08:43:14;;;;;;;15.00;2.80;;;;;;;8.42;55.33;102933.28;4967670;28;118737;-77
2022/01/30 08:45:41;;;;;;;9.48;1.80;;;;;;;8.46;55.73;102935.06;4981900;28;123515;-77
2022/01/30 08:48:09;;;;;;;12.15;2.25;;;;;;;8.52;55.82;102937.69;4966197;28;124506;-77
2022/01/30 08:50:36;;;;;;;14.98;2.33;;;;;;;8.58;55.87;102945.56;4965890;28;117751;-78
2022/01/30 08:53:04;;;;;;;15.50;2.92;;;;;;;8.63;55.68;102949.09;4965699;28;117959;-77
2022/01/30 08:55:33;;;;;;;11.15;1.80;;;;;;;8.69;55.76;102951.69;4982359;28;124034;-77
2022/01/30 08:58:07;;;;;;;10.15;2.17;;;;;;;8.76;55.66;102956.09;4982296;28;124274;-77
2022/01/30 09:00:40;;;;;;;13.93;2.35;;;;;;;8.84;55.50;102965.75;4965380;28;118478;-77
2022/01/30 09:03:08;;;;;;;15.63;2.10;;;;;;;8.88;55.44;102956.94;4965944;28;118200;-77
2022/01/30 09:05:36;;;;;;;12.02;1.98;;;;;;;8.95;55.77;102958.66;4964886;28;125597;-76
2022/01/30 09:08:04;;;;;;;15.77;3.10;;;;;;;9.01;55.55;102960.41;4981195;28;123210;-77
2022/01/30 09:10:35;;;;;;;13.68;2.13;;;;;;;9.04;55.42;102965.66;4981502;28;119484;-77
2022/01/30 09:13:04;;;;;;;13.30;2.78;;;;;;;9.10;55.39;102969.16;4966612;28;118264;-77
2022/01/30 09:15:38;;;;;;;16.92;2.45;;;;;;;9.15;54.91;102971.78;4969242;28;124029;-77
2022/01/30 09:18:10;;;;;;;16.23;2.38;;;;;;;9.20;55.22;102977.06;4969122;28;123661;-77
2022/01/30 09:20:42;;;;;;;11.13;1.85;;;;;;;9.23;55.15;102982.31;4970023;28;119411;-77
2022/01/30 09:23:11;;;;;;;14.05;2.13;;;;;;;9.27;54.96;102984.06;4987134;28;118656;-78
2022/01/30 09:25:43;;;;;;;12.55;1.70;;;;;;;9.31;54.86;102977.88;4971113;28;124629;-78
2022/01/30 09:28:11;;;;;;;12.95;2.85;;;;;;;9.36;55.06;102976.06;4955026;28;123633;-77
2022/01/30 09:30:38;;;;;;;13.65;2.42;;;;;;;9.42;54.77;102984.00;4972451;28;119966;-78
2022/01/30 09:33:05;;;;;;;12.30;2.65;;;;;;;9.48;54.61;102988.38;4987376;28;119534;-77
2022/01/30 09:35:32;;;;;;;15.13;2.40;;;;;;;9.51;54.89;102991.88;4970828;28;123491;-78
2022/01/30 09:38:01;;;;;;;16.42;2.83;;;;;;;9.57;54.78;102987.41;4971685;28;122719;-77
2022/01/30 09:40:28;;;;;;;13.68;2.50;;;;;;;9.61;54.67;102999.75;4972240;28;119154;-78
2022/01/30 09:42:57;;;;;;;15.68;2.83;;;;;;;9.66;54.86;102988.25;4972453;28;119145;-77
2022/01/30 09:45:24;;;;;;;14.13;2.20;;;;;;;9.72;54.88;102998.78;4971296;28;123502;-77
2022/01/30 09:47:52;;;;;;;13.85;2.08;;;;;;;9.80;54.68;102990.78;4997655;28;122220;-76
2022/01/30 09:50:22;;;;;;;15.40;2.30;;;;;;;9.86;54.33;102993.38;4980321;28;118969;-77
2022/01/30 09:52:49;;;;;;;16.70;2.30;;;;;;;9.93;54.50;102997.75;4972987;28;118951;-77
2022/01/30 09:55:16;;;;;;;11.32;2.20;;;;;;;10.01;54.43;103004.75;4986379;28;123896;-77
2022/01/30 09:57:44;;;;;;;14.45;2.17;;;;;;;10.06;54.38;102992.38;4970493;28;123211;-77
2022/01/30 10:00:12;;;;;;;20.27;2.70;;;;;;;10.12;54.54;102997.59;4968756;28;119981;-77
2022/01/30 10:02:43;;;;;;;10.60;2.45;;;;;;;10.19;54.22;103007.25;4987340;28;119839;-77
2022/01/30 10:05:13;;;;;;;21.67;2.88;;;;;;;10.24;54.52;103002.78;4972870;28;124148;-78
2022/01/30 10:07:45;;;;;;;17.67;2.70;;;;;;;10.30;54.26;103001.84;4978019;28;123623;-78
2022/01/30 10:10:16;;;;;;;17.00;2.67;;;;;;;10.35;54.30;103007.16;4973510;28;119921;-77
2022/01/30 10:13:14;;;;;;;14.32;2.53;;;;;;;10.40;54.12;103003.56;4973320;28;118559;-77
2022/01/30 10:15:57;;;;;;;20.52;2.60;;;;;;;10.44;53.98;103002.66;4971251;28;122250;-76
2022/01/30 10:18:32;;;;;;;15.20;2.00;;;;;;;10.46;53.66;103013.22;4987430;28;123016;-77
2022/01/30 10:21:02;;;;;;;15.48;2.20;;;;;;;10.48;53.63;103022.03;4992993;28;117785;-78
2022/01/30 10:23:34;;;;;;;14.45;2.28;;;;;;;10.48;53.64;103032.63;4975055;28;118852;-77
2022/01/30 10:26:08;;;;;;;13.32;3.50;;;;;;;10.49;53.42;103029.06;4971556;28;124513;-77
2022/01/30 10:28:36;;;;;;;17.77;2.90;;;;;;;10.49;53.62;103029.97;4971238;28;121806;-77
2022/01/30 10:31:05;;;;;;;19.58;2.78;;;;;;;10.49;53.62;103029.97;4987033;28;119835;-78
2022/01/30 10:33:52;;;;;;;19.23;2.78;;;;;;;10.52;53.37;103023.75;4970360;28;119651;-78
2022/01/30 10:36:30;;;;;;;17.48;2.75;;;;;;;10.58;53.56;103021.03;4969140;28;123007;-77
2022/01/30 10:39:01;;;;;;;16.45;2.72;;;;;;;10.63;53.40;103027.19;4970018;28;124811;-78
2022/01/30 10:41:36;;;;;;;19.52;2.40;;;;;;;10.70;53.46;103026.22;4969248;28;119265;-77
2022/01/30 10:44:05;;;;;;;15.10;2.97;;;;;;;10.79;53.65;103017.28;4968890;28;118610;-77
2022/01/30 10:46:45;;;;;;;14.38;2.38;;;;;;;10.87;53.28;103019.88;4969199;28;124536;-77
2022/01/30 10:49:16;;;;;;;14.23;2.20;;;;;;;10.96;53.36;103013.56;4968797;28;124047;-77
2022/01/30 10:51:56;;;;;;;16.92;2.60;;;;;;;11.01;53.16;103012.63;4980623;28;120697;-77
2022/01/30 10:54:26;;;;;;;21.20;2.70;;;;;;;11.07;53.09;103001.94;4984119;28;119653;-78
2022/01/30 10:57:04;;;;;;;21.90;2.22;;;;;;;11.15;52.77;103003.63;4967552;28;124737;-78
2022/01/30 10:59:33;;;;;;;14.52;2.63;;;;;;;11.23;53.16;103007.06;4984778;28;123574;-76
2022/01/30 11:02:18;;;;;;;16.58;2.65;;;;;;;11.31;52.95;103005.19;4967335;28;117624;-77
2022/01/30 11:04:48;;;;;;;18.50;2.90;;;;;;;11.34;52.59;103005.16;4968156;28;119084;-78
2022/01/30 11:07:19;;;;;;;13.20;2.55;;;;;;;11.37;52.58;103005.09;4984132;28;124126;-78
2022/01/30 11:10:10;;;;;;;21.60;2.97;;;;;;;11.42;52.31;102997.09;4968289;28;123860;-78
2022/01/30 11:12:46;;;;;;;13.52;2.47;;;;;;;11.45;52.21;103002.31;4967865;28;118522;-77
2022/01/30 11:15:18;;;;;;;19.02;2.92;;;;;;;11.44;51.93;102996.16;4967377;28;118635;-78
2022/01/30 11:17:46;;;;;;;13.55;2.70;;;;;;;11.45;51.73;102992.63;4981516;28;123374;-77
2022/01/30 11:20:14;;;;;;;16.05;2.65;;;;;;;11.47;52.07;102985.50;4966535;28;122635;-77
2022/01/30 11:22:45;;;;;;;12.80;2.50;;;;;;;11.51;51.65;102986.34;4968880;28;119051;-78
2022/01/30 11:25:13;;;;;;;15.13;2.47;;;;;;;11.53;51.78;102988.94;4981554;28;118733;-77
2022/01/30 11:27:44;;;;;;;19.70;2.97;;;;;;;11.53;51.38;102983.63;4950958;28;123609;-78
2022/01/30 11:30:11;;;;;;;22.73;2.63;;;;;;;11.53;51.42;102994.25;4983510;28;123690;-78
2022/01/30 11:32:39;;;;;;;17.08;3.00;;;;;;;11.55;51.42;102987.19;4967403;28;119640;-76
2022/01/30 11:35:07;;;;;;;16.55;2.45;;;;;;;11.57;51.50;102974.75;4967100;28;117973;-76
2022/01/30 11:37:37;;;;;;;20.70;2.63;;;;;;;11.60;51.09;102974.69;4965968;28;122951;-78
2022/01/30 11:40:16;;;;;;;14.27;2.67;;;;;;;11.63;51.32;102969.34;4968169;28;123101;-77
2022/01/30 11:42:46;;;;;;;16.48;2.85;;;;;;;11.69;51.26;102969.25;4963935;28;119971;-77
2022/01/30 11:45:21;;;;;;;14.85;2.67;;;;;;;11.76;51.13;102970.03;4966671;28;118097;-78
2022/01/30 11:48:14;;;;;;;16.70;2.75;;;;;;;11.80;51.24;102967.31;4966634;28;124164;-78
2022/01/30 11:50:42;;;;;;;14.10;2.58;;;;;;;11.82;51.05;102965.50;4966137;28;122228;-77
2022/01/30 11:53:26;;;;;;;15.70;2.53;;;;;;;11.84;50.77;102963.69;4968530;28;118591;-76
2022/01/30 11:55:57;;;;;;;14.80;2.17;;;;;;;11.88;50.67;102975.13;4983814;28;118805;-77
2022/01/30 11:58:34;;;;;;;20.63;2.40;;;;;;;11.91;50.70;102976.91;4966648;28;122628;-78
2022/01/30 12:01:24;;;;;;;17.13;2.88;;;;;;;11.92;50.58;102965.38;4967265;28;123194;-76
2022/01/30 12:04:08;;;;;;;12.55;2.55;;;;;;;11.92;50.32;102976.00;4961367;28;119407;-78
2022/01/30 12:06:37;;;;;;;11.52;2.13;;;;;;;11.92;50.32;102970.69;4966662;28;118975;-78
2022/01/30 12:09:27;;;;;;;18.23;2.20;;;;;;;11.91;50.26;102968.97;4966681;28;122967;-78
2022/01/30 12:11:56;;;;;;;15.00;2.47;;;;;;;11.94;50.46;102966.22;4981803;28;123724;-78
2022/01/30 12:14:24;;;;;;;14.43;2.45;;;;;;;11.96;50.31;102972.38;4967133;28;118842;-77
2022/01/30 12:16:52;;;;;;;12.57;2.17;;;;;;;11.96;50.26;102972.38;4967017;28;118387;-78
2022/01/30 12:19:31;;;;;;;16.33;2.33;;;;;;;11.95;50.32;102965.34;4965311;28;123901;-78
2022/01/30 12:22:00;;;;;;;15.55;2.45;;;;;;;11.93;50.20;102956.53;4967252;28;124207;-78
2022/01/30 12:24:31;;;;;;;17.92;2.75;;;;;;;11.91;50.18;102963.66;4967016;28;118364;-78
2022/01/30 12:27:02;;;;;;;15.55;2.25;;;;;;;11.88;50.16;102957.47;4966234;28;119347;-78
2022/01/30 12:29:37;;;;;;;16.75;2.60;;;;;;;11.85;50.09;102957.50;4966914;28;124550;-77
2022/01/30 12:32:20;;;;;;;18.50;2.50;;;;;;;11.80;49.99;102956.69;4983501;28;122981;-77
2022/01/30 12:34:56;;;;;;;17.00;2.40;;;;;;;11.80;50.21;102951.38;4966919;28;120302;-77
2022/01/30 12:37:31;;;;;;;12.52;2.38;;;;;;;11.84;50.48;102937.13;4967949;28;120446;-77